sensor_id;sensor_type;location;lat;lon;timestamp;temperature;humidity
61016;DHT22;46902;52.920;6.536;2022-11-18T00:00:11;7.70;99.90
61016;DHT22;46902;52.920;6.536;2022-11-18T00:02:38;7.70;99.90
61016;DHT22;46902;52.920;6.536;2022-11-18T00:05:03;7.70;99.90
61016;DHT22;46902;52.920;6.536;2022-11-18T00:07:29;7.70;99.90
61016;DHT22;46902;52.920;6.536;2022-11-18T00:09:54;7.70;99.90
61016;DHT22;46902;52.920;6.536;2022-11-18T00:12:20;7.70;99.90
61016;DHT22;46902;52.920;6.536;2022-11-18T00:15:11;7.70;99.90
61016;DHT22;46902;52.920;6.536;2022-11-18T00:17:37;7.70;99.90
61016;DHT22;46902;52.920;6.536;2022-11-18T00:20:03;7.70;99.90
61016;DHT22;46902;52.920;6.536;2022-11-18T00:22:28;7.70;99.90
61016;DHT22;46902;52.920;6.536;2022-11-18T00:24:54;7.80;99.90
61016;DHT22;46902;52.920;6.536;2022-11-18T00:27:19;7.70;99.90
61016;DHT22;46902;52.920;6.536;2022-11-18T00:29:45;7.70;99.90
61016;DHT22;46902;52.920;6.536;2022-11-18T00:32:10;7.80;99.90
61016;DHT22;46902;52.920;6.536;2022-11-18T00:34:36;7.70;99.90
61016;DHT22;46902;52.920;6.536;2022-11-18T00:37:02;7.70;99.90
61016;DHT22;46902;52.920;6.536;2022-11-18T00:39:27;7.80;99.90
61016;DHT22;46902;52.920;6.536;2022-11-18T00:41:53;7.70;99.90
61016;DHT22;46902;52.920;6.536;2022-11-18T00:44:37;7.70;99.90
61016;DHT22;46902;52.920;6.536;2022-11-18T00:47:03;7.70;99.90
61016;DHT22;46902;52.920;6.536;2022-11-18T00:49:28;7.80;99.90
61016;DHT22;46902;52.920;6.536;2022-11-18T00:51:54;7.70;99.90
61016;DHT22;46902;52.920;6.536;2022-11-18T00:54:20;7.80;99.90
61016;DHT22;46902;52.920;6.536;2022-11-18T00:56:45;7.80;99.90
61016;DHT22;46902;52.920;6.536;2022-11-18T00:59:11;7.80;99.90
61016;DHT22;46902;52.920;6.536;2022-11-18T01:01:36;7.80;99.90
61016;DHT22;46902;52.920;6.536;2022-11-18T01:04:02;7.80;99.90
61016;DHT22;46902;52.920;6.536;2022-11-18T01:06:28;7.80;99.90
61016;DHT22;46902;52.920;6.536;2022-11-18T01:08:53;7.80;99.90
61016;DHT22;46902;52.920;6.536;2022-11-18T01:11:19;7.80;99.90
61016;DHT22;46902;52.920;6.536;2022-11-18T01:14:03;7.80;99.90
61016;DHT22;46902;52.920;6.536;2022-11-18T01:16:28;7.80;99.90
61016;DHT22;46902;52.920;6.536;2022-11-18T01:18:55;7.80;99.90
61016;DHT22;46902;52.920;6.536;2022-11-18T01:21:21;7.80;99.90
61016;DHT22;46902;52.920;6.536;2022-11-18T01:23:47;7.80;99.90
61016;DHT22;46902;52.920;6.536;2022-11-18T01:26:14;7.80;99.90
61016;DHT22;46902;52.920;6.536;2022-11-18T01:28:40;7.80;99.90
61016;DHT22;46902;52.920;6.536;2022-11-18T01:31:15;7.80;99.90
61016;DHT22;46902;52.920;6.536;2022-11-18T01:33:41;7.80;99.90
61016;DHT22;46902;52.920;6.536;2022-11-18T01:36:21;7.90;99.90
61016;DHT22;46902;52.920;6.536;2022-11-18T01:38:47;7.80;99.90
61016;DHT22;46902;52.920;6.536;2022-11-18T01:41:14;7.80;99.90
61016;DHT22;46902;52.920;6.536;2022-11-18T01:43:59;7.80;99.90
61016;DHT22;46902;52.920;6.536;2022-11-18T01:46:28;7.80;99.90
61016;DHT22;46902;52.920;6.536;2022-11-18T01:49:06;7.80;99.90
61016;DHT22;46902;52.920;6.536;2022-11-18T01:51:47;7.80;99.90
61016;DHT22;46902;52.920;6.536;2022-11-18T01:54:17;7.90;99.90
61016;DHT22;46902;52.920;6.536;2022-11-18T01:56:49;7.80;99.90
61016;DHT22;46902;52.920;6.536;2022-11-18T01:59:19;7.80;99.90
61016;DHT22;46902;52.920;6.536;2022-11-18T02:01:47;7.80;99.90
61016;DHT22;46902;52.920;6.536;2022-11-18T02:04:13;7.80;99.90
61016;DHT22;46902;52.920;6.536;2022-11-18T02:06:40;7.70;99.90
61016;DHT22;46902;52.920;6.536;2022-11-18T02:09:06;7.80;99.90
61016;DHT22;46902;52.920;6.536;2022-11-18T02:11:32;7.80;99.90
61016;DHT22;46902;52.920;6.536;2022-11-18T02:14:18;7.80;99.90
61016;DHT22;46902;52.920;6.536;2022-11-18T02:17:03;7.80;99.90
61016;DHT22;46902;52.920;6.536;2022-11-18T02:25:16;7.80;99.90
61016;DHT22;46902;52.920;6.536;2022-11-18T02:34:45;7.80;99.90
61016;DHT22;46902;52.920;6.536;2022-11-18T02:37:13;7.80;99.90
61016;DHT22;46902;52.920;6.536;2022-11-18T02:40:01;7.90;99.90
61016;DHT22;46902;52.920;6.536;2022-11-18T02:42:30;7.80;99.90
61016;DHT22;46902;52.920;6.536;2022-11-18T02:45:01;7.80;99.90
61016;DHT22;46902;52.920;6.536;2022-11-18T02:47:30;7.80;99.90
61016;DHT22;46902;52.920;6.536;2022-11-18T02:50:04;7.80;99.90
61016;DHT22;46902;52.920;6.536;2022-11-18T02:52:31;7.80;99.90
61016;DHT22;46902;52.920;6.536;2022-11-18T02:54:59;7.80;99.90
61016;DHT22;46902;52.920;6.536;2022-11-18T02:57:26;7.80;99.90
61016;DHT22;46902;52.920;6.536;2022-11-18T02:59:54;7.80;99.90
61016;DHT22;46902;52.920;6.536;2022-11-18T03:02:20;7.80;99.90
61016;DHT22;46902;52.920;6.536;2022-11-18T03:04:47;7.80;99.90
61016;DHT22;46902;52.920;6.536;2022-11-18T03:07:28;7.80;99.90
61016;DHT22;46902;52.920;6.536;2022-11-18T03:09:56;7.80;99.90
61016;DHT22;46902;52.920;6.536;2022-11-18T03:20:18;7.80;99.90
61016;DHT22;46902;52.920;6.536;2022-11-18T03:22:52;7.80;99.90
61016;DHT22;46902;52.920;6.536;2022-11-18T03:25:24;7.80;99.90
61016;DHT22;46902;52.920;6.536;2022-11-18T03:27:59;7.80;99.90
61016;DHT22;46902;52.920;6.536;2022-11-18T03:30:29;7.70;99.90
61016;DHT22;46902;52.920;6.536;2022-11-18T03:33:04;7.70;99.90
61016;DHT22;46902;52.920;6.536;2022-11-18T03:35:32;7.80;99.90
61016;DHT22;46902;52.920;6.536;2022-11-18T03:38:04;7.80;99.90
61016;DHT22;46902;52.920;6.536;2022-11-18T03:40:32;7.80;99.90
61016;DHT22;46902;52.920;6.536;2022-11-18T03:43:08;7.80;99.90
61016;DHT22;46902;52.920;6.536;2022-11-18T03:45:44;7.80;99.90
61016;DHT22;46902;52.920;6.536;2022-11-18T03:48:15;7.80;99.90
61016;DHT22;46902;52.920;6.536;2022-11-18T03:50:48;7.80;99.90
61016;DHT22;46902;52.920;6.536;2022-11-18T03:53:16;7.80;99.90
61016;DHT22;46902;52.920;6.536;2022-11-18T03:55:47;7.80;99.90
61016;DHT22;46902;52.920;6.536;2022-11-18T03:58:49;7.80;99.90
61016;DHT22;46902;52.920;6.536;2022-11-18T04:01:41;7.80;99.90
61016;DHT22;46902;52.920;6.536;2022-11-18T04:04:08;7.80;99.90
61016;DHT22;46902;52.920;6.536;2022-11-18T04:06:48;7.70;99.90
61016;DHT22;46902;52.920;6.536;2022-11-18T04:09:21;7.80;99.90
61016;DHT22;46902;52.920;6.536;2022-11-18T04:11:54;7.80;99.90
61016;DHT22;46902;52.920;6.536;2022-11-18T04:14:48;7.80;99.90
61016;DHT22;46902;52.920;6.536;2022-11-18T04:17:19;7.80;99.90
61016;DHT22;46902;52.920;6.536;2022-11-18T04:19:45;7.80;99.90
61016;DHT22;46902;52.920;6.536;2022-11-18T04:22:11;7.80;99.90
61016;DHT22;46902;52.920;6.536;2022-11-18T04:24:37;7.80;99.90
61016;DHT22;46902;52.920;6.536;2022-11-18T04:27:03;7.70;99.90
61016;DHT22;46902;52.920;6.536;2022-11-18T04:29:30;7.80;99.90
61016;DHT22;46902;52.920;6.536;2022-11-18T04:31:56;7.80;99.90
61016;DHT22;46902;52.920;6.536;2022-11-18T04:34:21;7.80;99.90
61016;DHT22;46902;52.920;6.536;2022-11-18T04:36:47;7.70;99.90
61016;DHT22;46902;52.920;6.536;2022-11-18T04:39:12;7.70;99.90
61016;DHT22;46902;52.920;6.536;2022-11-18T04:41:38;7.70;99.90
61016;DHT22;46902;52.920;6.536;2022-11-18T04:44:23;7.60;99.90
61016;DHT22;46902;52.920;6.536;2022-11-18T04:46:49;7.60;99.90
61016;DHT22;46902;52.920;6.536;2022-11-18T04:49:15;7.60;99.90
61016;DHT22;46902;52.920;6.536;2022-11-18T04:51:42;7.60;99.90
61016;DHT22;46902;52.920;6.536;2022-11-18T04:54:08;7.60;99.90
61016;DHT22;46902;52.920;6.536;2022-11-18T04:56:34;7.60;99.90
61016;DHT22;46902;52.920;6.536;2022-11-18T04:59:01;7.50;99.90
61016;DHT22;46902;52.920;6.536;2022-11-18T05:01:27;7.50;99.90
61016;DHT22;46902;52.920;6.536;2022-11-18T05:03:53;7.50;99.90
61016;DHT22;46902;52.920;6.536;2022-11-18T05:06:19;7.50;99.90
61016;DHT22;46902;52.920;6.536;2022-11-18T05:08:45;7.50;99.90
61016;DHT22;46902;52.920;6.536;2022-11-18T05:11:10;7.50;99.90
61016;DHT22;46902;52.920;6.536;2022-11-18T05:13:59;7.50;99.90
61016;DHT22;46902;52.920;6.536;2022-11-18T05:16:24;7.50;99.90
61016;DHT22;46902;52.920;6.536;2022-11-18T05:18:50;7.50;99.90
61016;DHT22;46902;52.920;6.536;2022-11-18T05:21:15;7.50;99.90
61016;DHT22;46902;52.920;6.536;2022-11-18T05:23:41;7.50;99.90
61016;DHT22;46902;52.920;6.536;2022-11-18T05:26:09;7.50;99.90
61016;DHT22;46902;52.920;6.536;2022-11-18T05:28:35;7.50;99.90
61016;DHT22;46902;52.920;6.536;2022-11-18T05:31:12;7.50;99.90
61016;DHT22;46902;52.920;6.536;2022-11-18T05:33:38;7.50;99.90
61016;DHT22;46902;52.920;6.536;2022-11-18T05:36:05;7.40;99.90
61016;DHT22;46902;52.920;6.536;2022-11-18T05:38:32;7.50;99.90
61016;DHT22;46902;52.920;6.536;2022-11-18T05:40:58;7.50;99.90
61016;DHT22;46902;52.920;6.536;2022-11-18T05:43:24;7.40;99.90
61016;DHT22;46902;52.920;6.536;2022-11-18T05:45:50;7.50;99.90
61016;DHT22;46902;52.920;6.536;2022-11-18T05:48:17;7.50;99.90
61016;DHT22;46902;52.920;6.536;2022-11-18T05:50:46;7.50;99.90
61016;DHT22;46902;52.920;6.536;2022-11-18T05:53:12;7.50;99.90
61016;DHT22;46902;52.920;6.536;2022-11-18T05:55:43;7.50;99.90
61016;DHT22;46902;52.920;6.536;2022-11-18T05:58:11;7.50;99.90
61016;DHT22;46902;52.920;6.536;2022-11-18T06:00:36;7.50;99.90
61016;DHT22;46902;52.920;6.536;2022-11-18T06:03:03;7.40;99.90
61016;DHT22;46902;52.920;6.536;2022-11-18T06:05:32;7.50;99.90
61016;DHT22;46902;52.920;6.536;2022-11-18T06:07:58;7.50;99.90
61016;DHT22;46902;52.920;6.536;2022-11-18T06:10:27;7.50;99.90
61016;DHT22;46902;52.920;6.536;2022-11-18T06:12:57;7.40;99.90
61016;DHT22;46902;52.920;6.536;2022-11-18T06:15:26;7.50;99.90
61016;DHT22;46902;52.920;6.536;2022-11-18T06:18:00;7.40;99.90
61016;DHT22;46902;52.920;6.536;2022-11-18T06:20:27;7.40;99.90
61016;DHT22;46902;52.920;6.536;2022-11-18T06:22:55;7.40;99.90
61016;DHT22;46902;52.920;6.536;2022-11-18T06:25:22;7.40;99.90
61016;DHT22;46902;52.920;6.536;2022-11-18T06:27:49;7.40;99.90
61016;DHT22;46902;52.920;6.536;2022-11-18T06:30:16;7.40;99.90
61016;DHT22;46902;52.920;6.536;2022-11-18T06:32:42;7.40;99.90
61016;DHT22;46902;52.920;6.536;2022-11-18T06:35:08;7.40;99.90
61016;DHT22;46902;52.920;6.536;2022-11-18T06:37:33;7.40;99.90
61016;DHT22;46902;52.920;6.536;2022-11-18T06:39:59;7.40;99.90
61016;DHT22;46902;52.920;6.536;2022-11-18T06:42:28;7.40;99.90
61016;DHT22;46902;52.920;6.536;2022-11-18T06:45:12;7.40;99.90
61016;DHT22;46902;52.920;6.536;2022-11-18T06:47:38;7.30;99.90
61016;DHT22;46902;52.920;6.536;2022-11-18T06:50:04;7.30;99.90
61016;DHT22;46902;52.920;6.536;2022-11-18T06:52:30;7.30;99.90
61016;DHT22;46902;52.920;6.536;2022-11-18T06:54:55;7.30;99.90
61016;DHT22;46902;52.920;6.536;2022-11-18T06:57:21;7.30;99.90
61016;DHT22;46902;52.920;6.536;2022-11-18T06:59:46;7.30;99.90
61016;DHT22;46902;52.920;6.536;2022-11-18T07:02:12;7.30;99.90
61016;DHT22;46902;52.920;6.536;2022-11-18T07:04:37;7.40;99.90
61016;DHT22;46902;52.920;6.536;2022-11-18T07:07:06;7.40;99.90
61016;DHT22;46902;52.920;6.536;2022-11-18T07:09:33;7.30;99.90
61016;DHT22;46902;52.920;6.536;2022-11-18T07:11:58;7.40;99.90
61016;DHT22;46902;52.920;6.536;2022-11-18T07:14:24;7.40;99.90
61016;DHT22;46902;52.920;6.536;2022-11-18T07:16:50;7.30;99.90
61016;DHT22;46902;52.920;6.536;2022-11-18T07:19:16;7.40;99.90
61016;DHT22;46902;52.920;6.536;2022-11-18T07:21:41;7.30;99.90
61016;DHT22;46902;52.920;6.536;2022-11-18T07:24:10;7.30;99.90
61016;DHT22;46902;52.920;6.536;2022-11-18T07:26:36;7.30;99.90
61016;DHT22;46902;52.920;6.536;2022-11-18T07:29:02;7.30;99.90
61016;DHT22;46902;52.920;6.536;2022-11-18T07:31:28;7.30;99.90
61016;DHT22;46902;52.920;6.536;2022-11-18T07:33:53;7.20;99.90
61016;DHT22;46902;52.920;6.536;2022-11-18T07:36:25;7.20;99.90
61016;DHT22;46902;52.920;6.536;2022-11-18T07:38:51;7.20;99.90
61016;DHT22;46902;52.920;6.536;2022-11-18T07:41:22;7.20;99.90
61016;DHT22;46902;52.920;6.536;2022-11-18T07:43:49;7.20;99.90
61016;DHT22;46902;52.920;6.536;2022-11-18T07:46:18;7.20;99.90
61016;DHT22;46902;52.920;6.536;2022-11-18T07:48:45;7.20;99.90
61016;DHT22;46902;52.920;6.536;2022-11-18T07:51:12;7.20;99.90
61016;DHT22;46902;52.920;6.536;2022-11-18T07:53:38;7.20;99.90
61016;DHT22;46902;52.920;6.536;2022-11-18T07:56:05;7.20;99.90
61016;DHT22;46902;52.920;6.536;2022-11-18T07:58:31;7.20;99.90
61016;DHT22;46902;52.920;6.536;2022-11-18T08:00:57;7.20;99.90
61016;DHT22;46902;52.920;6.536;2022-11-18T08:03:26;7.20;99.90
61016;DHT22;46902;52.920;6.536;2022-11-18T08:06:02;7.20;99.90
61016;DHT22;46902;52.920;6.536;2022-11-18T08:08:28;7.20;99.90
61016;DHT22;46902;52.920;6.536;2022-11-18T08:10:55;7.10;99.90
61016;DHT22;46902;52.920;6.536;2022-11-18T08:13:21;7.10;99.90
61016;DHT22;46902;52.920;6.536;2022-11-18T08:15:47;7.10;99.90
61016;DHT22;46902;52.920;6.536;2022-11-18T08:18:12;7.10;99.90
61016;DHT22;46902;52.920;6.536;2022-11-18T08:20:38;7.10;99.90
61016;DHT22;46902;52.920;6.536;2022-11-18T08:23:03;7.10;99.90
61016;DHT22;46902;52.920;6.536;2022-11-18T08:25:29;7.10;99.90
61016;DHT22;46902;52.920;6.536;2022-11-18T08:27:54;7.10;99.90
61016;DHT22;46902;52.920;6.536;2022-11-18T08:30:20;7.10;99.90
61016;DHT22;46902;52.920;6.536;2022-11-18T08:32:45;7.10;99.90
61016;DHT22;46902;52.920;6.536;2022-11-18T08:35:11;7.10;99.90
61016;DHT22;46902;52.920;6.536;2022-11-18T08:37:37;7.10;99.90
61016;DHT22;46902;52.920;6.536;2022-11-18T08:40:03;7.10;99.90
61016;DHT22;46902;52.920;6.536;2022-11-18T08:42:28;7.10;99.90
61016;DHT22;46902;52.920;6.536;2022-11-18T08:44:54;7.10;99.90
61016;DHT22;46902;52.920;6.536;2022-11-18T08:47:20;7.10;99.90
61016;DHT22;46902;52.920;6.536;2022-11-18T08:49:45;7.10;99.90
61016;DHT22;46902;52.920;6.536;2022-11-18T08:52:11;7.10;99.90
61016;DHT22;46902;52.920;6.536;2022-11-18T08:54:37;7.10;99.90
61016;DHT22;46902;52.920;6.536;2022-11-18T08:57:02;7.10;99.90
61016;DHT22;46902;52.920;6.536;2022-11-18T08:59:28;7.10;99.90
61016;DHT22;46902;52.920;6.536;2022-11-18T09:01:54;7.10;99.90
61016;DHT22;46902;52.920;6.536;2022-11-18T09:04:19;7.10;99.90
61016;DHT22;46902;52.920;6.536;2022-11-18T09:06:45;7.10;99.90
61016;DHT22;46902;52.920;6.536;2022-11-18T09:09:10;7.10;99.90
61016;DHT22;46902;52.920;6.536;2022-11-18T09:11:38;7.10;99.90
61016;DHT22;46902;52.920;6.536;2022-11-18T09:14:03;7.10;99.90
61016;DHT22;46902;52.920;6.536;2022-11-18T09:16:31;7.10;99.90
61016;DHT22;46902;52.920;6.536;2022-11-18T09:18:57;7.10;99.90
61016;DHT22;46902;52.920;6.536;2022-11-18T09:21:24;7.10;99.90
61016;DHT22;46902;52.920;6.536;2022-11-18T09:23:50;7.10;99.90
61016;DHT22;46902;52.920;6.536;2022-11-18T09:26:17;7.10;99.90
61016;DHT22;46902;52.920;6.536;2022-11-18T09:28:43;7.10;99.90
61016;DHT22;46902;52.920;6.536;2022-11-18T09:31:12;7.10;99.90
61016;DHT22;46902;52.920;6.536;2022-11-18T09:33:38;7.10;99.90
61016;DHT22;46902;52.920;6.536;2022-11-18T09:36:10;7.10;99.90
61016;DHT22;46902;52.920;6.536;2022-11-18T09:38:36;7.10;99.90
61016;DHT22;46902;52.920;6.536;2022-11-18T09:41:28;7.10;99.90
61016;DHT22;46902;52.920;6.536;2022-11-18T09:47:07;7.20;99.90
61016;DHT22;46902;52.920;6.536;2022-11-18T09:49:36;7.20;99.90
61016;DHT22;46902;52.920;6.536;2022-11-18T09:52:09;7.10;99.90
61016;DHT22;46902;52.920;6.536;2022-11-18T09:54:36;7.10;99.90
61016;DHT22;46902;52.920;6.536;2022-11-18T09:57:09;7.10;99.90
61016;DHT22;46902;52.920;6.536;2022-11-18T09:59:36;7.10;99.90
61016;DHT22;46902;52.920;6.536;2022-11-18T10:04:54;7.10;99.90
61016;DHT22;46902;52.920;6.536;2022-11-18T10:07:34;7.10;99.90
61016;DHT22;46902;52.920;6.536;2022-11-18T10:10:02;7.10;99.90
61016;DHT22;46902;52.920;6.536;2022-11-18T10:12:40;7.00;99.90
61016;DHT22;46902;52.920;6.536;2022-11-18T10:15:31;7.00;99.90
61016;DHT22;46902;52.920;6.536;2022-11-18T10:18:10;7.00;99.90
61016;DHT22;46902;52.920;6.536;2022-11-18T10:23:27;7.00;99.90
61016;DHT22;46902;52.920;6.536;2022-11-18T10:25:54;7.00;99.90
61016;DHT22;46902;52.920;6.536;2022-11-18T10:28:21;7.00;99.90
61016;DHT22;46902;52.920;6.536;2022-11-18T10:30:47;7.00;99.90
61016;DHT22;46902;52.920;6.536;2022-11-18T10:33:24;7.00;99.90
61016;DHT22;46902;52.920;6.536;2022-11-18T10:36:07;7.10;99.90
61016;DHT22;46902;52.920;6.536;2022-11-18T10:38:32;7.00;99.90
61016;DHT22;46902;52.920;6.536;2022-11-18T10:41:01;7.00;99.90
61016;DHT22;46902;52.920;6.536;2022-11-18T10:51:36;7.10;99.90
61016;DHT22;46902;52.920;6.536;2022-11-18T10:54:14;7.10;99.90
61016;DHT22;46902;52.920;6.536;2022-11-18T10:56:56;7.00;99.90
61016;DHT22;46902;52.920;6.536;2022-11-18T10:59:30;7.00;99.90
61016;DHT22;46902;52.920;6.536;2022-11-18T11:02:14;7.00;99.90
61016;DHT22;46902;52.920;6.536;2022-11-18T11:04:40;7.00;99.90
61016;DHT22;46902;52.920;6.536;2022-11-18T11:07:27;7.00;99.90
61016;DHT22;46902;52.920;6.536;2022-11-18T11:10:19;7.00;99.90
61016;DHT22;46902;52.920;6.536;2022-11-18T11:12:53;7.10;99.90
61016;DHT22;46902;52.920;6.536;2022-11-18T11:15:34;7.10;99.90
61016;DHT22;46902;52.920;6.536;2022-11-18T11:18:09;7.10;99.90
61016;DHT22;46902;52.920;6.536;2022-11-18T11:20:55;7.10;99.90
61016;DHT22;46902;52.920;6.536;2022-11-18T11:23:24;7.10;99.90
61016;DHT22;46902;52.920;6.536;2022-11-18T11:26:13;7.20;99.90
61016;DHT22;46902;52.920;6.536;2022-11-18T11:31:26;7.20;99.90
61016;DHT22;46902;52.920;6.536;2022-11-18T11:34:10;7.10;99.90
61016;DHT22;46902;52.920;6.536;2022-11-18T11:37:09;7.10;99.90
61016;DHT22;46902;52.920;6.536;2022-11-18T11:45:23;7.10;99.90
61016;DHT22;46902;52.920;6.536;2022-11-18T11:48:06;7.10;99.90
61016;DHT22;46902;52.920;6.536;2022-11-18T11:51:01;7.10;99.90
61016;DHT22;46902;52.920;6.536;2022-11-18T12:13:44;6.90;99.90
61016;DHT22;46902;52.920;6.536;2022-11-18T12:16:47;6.90;99.90
61016;DHT22;46902;52.920;6.536;2022-11-18T12:27:03;7.00;99.90
61016;DHT22;46902;52.920;6.536;2022-11-18T12:29:36;6.90;99.90
61016;DHT22;46902;52.920;6.536;2022-11-18T12:32:03;6.90;99.90
61016;DHT22;46902;52.920;6.536;2022-11-18T12:34:40;6.80;99.90
61016;DHT22;46902;52.920;6.536;2022-11-18T12:42:44;6.80;99.90
61016;DHT22;46902;52.920;6.536;2022-11-18T12:48:31;6.80;99.90
61016;DHT22;46902;52.920;6.536;2022-11-18T12:51:09;6.80;99.90
61016;DHT22;46902;52.920;6.536;2022-11-18T12:53:50;6.80;99.90
61016;DHT22;46902;52.920;6.536;2022-11-18T12:59:01;6.70;99.90
61016;DHT22;46902;52.920;6.536;2022-11-18T13:01:31;6.70;99.90
61016;DHT22;46902;52.920;6.536;2022-11-18T13:04:17;6.60;99.90
61016;DHT22;46902;52.920;6.536;2022-11-18T13:06:46;6.60;99.90
61016;DHT22;46902;52.920;6.536;2022-11-18T13:09:17;6.60;99.90
61016;DHT22;46902;52.920;6.536;2022-11-18T13:11:49;6.60;99.90
61016;DHT22;46902;52.920;6.536;2022-11-18T13:14:40;6.60;99.90
61016;DHT22;46902;52.920;6.536;2022-11-18T13:17:29;6.60;99.90
61016;DHT22;46902;52.920;6.536;2022-11-18T13:22:52;6.50;99.90
61016;DHT22;46902;52.920;6.536;2022-11-18T13:25:38;6.50;99.90
61016;DHT22;46902;52.920;6.536;2022-11-18T13:34:29;6.50;99.90
61016;DHT22;46902;52.920;6.536;2022-11-18T13:36:58;6.40;99.90
61016;DHT22;46902;52.920;6.536;2022-11-18T13:39:31;6.30;99.90
61016;DHT22;46902;52.920;6.536;2022-11-18T13:42:02;6.30;99.90
61016;DHT22;46902;52.920;6.536;2022-11-18T13:44:31;6.30;99.90
61016;DHT22;46902;52.920;6.536;2022-11-18T13:47:23;6.30;99.90
61016;DHT22;46902;52.920;6.536;2022-11-18T13:50:02;6.30;99.90
61016;DHT22;46902;52.920;6.536;2022-11-18T13:55:14;6.30;99.90
61016;DHT22;46902;52.920;6.536;2022-11-18T13:57:40;6.30;99.90
61016;DHT22;46902;52.920;6.536;2022-11-18T14:00:20;6.20;99.90
61016;DHT22;46902;52.920;6.536;2022-11-18T14:02:52;6.30;99.90
61016;DHT22;46902;52.920;6.536;2022-11-18T14:05:19;6.20;99.90
61016;DHT22;46902;52.920;6.536;2022-11-18T14:08:02;6.10;99.90
61016;DHT22;46902;52.920;6.536;2022-11-18T14:10:42;6.10;99.90
61016;DHT22;46902;52.920;6.536;2022-11-18T14:13:22;6.10;99.90
61016;DHT22;46902;52.920;6.536;2022-11-18T14:15:49;6.10;99.90
61016;DHT22;46902;52.920;6.536;2022-11-18T14:18:35;6.00;99.90
61016;DHT22;46902;52.920;6.536;2022-11-18T14:21:03;6.10;99.90
61016;DHT22;46902;52.920;6.536;2022-11-18T14:23:35;6.00;99.90
61016;DHT22;46902;52.920;6.536;2022-11-18T14:26:04;6.00;99.90
61016;DHT22;46902;52.920;6.536;2022-11-18T14:28:31;5.90;99.90
61016;DHT22;46902;52.920;6.536;2022-11-18T14:34:14;5.80;99.90
61016;DHT22;46902;52.920;6.536;2022-11-18T14:36:40;5.80;99.90
61016;DHT22;46902;52.920;6.536;2022-11-18T14:39:21;5.70;99.90
61016;DHT22;46902;52.920;6.536;2022-11-18T14:41:47;5.70;99.90
61016;DHT22;46902;52.920;6.536;2022-11-18T14:44:13;5.70;99.90
61016;DHT22;46902;52.920;6.536;2022-11-18T14:46:40;5.70;99.90
61016;DHT22;46902;52.920;6.536;2022-11-18T14:49:12;5.70;99.90
61016;DHT22;46902;52.920;6.536;2022-11-18T14:51:38;5.60;99.90
61016;DHT22;46902;52.920;6.536;2022-11-18T14:54:04;5.60;99.90
61016;DHT22;46902;52.920;6.536;2022-11-18T14:56:31;5.60;99.90
61016;DHT22;46902;52.920;6.536;2022-11-18T14:58:58;5.50;99.90
61016;DHT22;46902;52.920;6.536;2022-11-18T15:01:24;5.50;99.90
61016;DHT22;46902;52.920;6.536;2022-11-18T15:03:52;5.50;99.90
61016;DHT22;46902;52.920;6.536;2022-11-18T15:06:19;5.50;99.90
61016;DHT22;46902;52.920;6.536;2022-11-18T15:08:47;5.40;99.90
61016;DHT22;46902;52.920;6.536;2022-11-18T15:11:13;5.40;99.90
61016;DHT22;46902;52.920;6.536;2022-11-18T15:13:39;5.40;99.90
61016;DHT22;46902;52.920;6.536;2022-11-18T15:16:11;5.40;99.90
61016;DHT22;46902;52.920;6.536;2022-11-18T15:18:38;5.40;99.90
61016;DHT22;46902;52.920;6.536;2022-11-18T15:21:03;5.30;99.90
61016;DHT22;46902;52.920;6.536;2022-11-18T15:23:29;5.30;99.90
61016;DHT22;46902;52.920;6.536;2022-11-18T15:25:54;5.30;99.90
61016;DHT22;46902;52.920;6.536;2022-11-18T15:28:20;5.30;99.90
61016;DHT22;46902;52.920;6.536;2022-11-18T15:30:45;5.30;99.90
61016;DHT22;46902;52.920;6.536;2022-11-18T15:33:11;5.20;99.90
61016;DHT22;46902;52.920;6.536;2022-11-18T15:35:36;5.20;99.90
61016;DHT22;46902;52.920;6.536;2022-11-18T15:38:02;5.20;99.90
61016;DHT22;46902;52.920;6.536;2022-11-18T15:40:27;5.20;99.90
61016;DHT22;46902;52.920;6.536;2022-11-18T15:42:53;5.10;99.90
61016;DHT22;46902;52.920;6.536;2022-11-18T15:45:18;5.10;99.90
61016;DHT22;46902;52.920;6.536;2022-11-18T15:47:44;5.00;99.90
61016;DHT22;46902;52.920;6.536;2022-11-18T15:50:11;5.00;99.90
61016;DHT22;46902;52.920;6.536;2022-11-18T15:52:37;5.00;99.90
61016;DHT22;46902;52.920;6.536;2022-11-18T15:55:03;4.90;99.90
61016;DHT22;46902;52.920;6.536;2022-11-18T15:57:28;4.90;99.90
61016;DHT22;46902;52.920;6.536;2022-11-18T15:59:54;4.80;99.90
61016;DHT22;46902;52.920;6.536;2022-11-18T16:02:19;4.80;99.90
61016;DHT22;46902;52.920;6.536;2022-11-18T16:04:45;4.80;99.90
61016;DHT22;46902;52.920;6.536;2022-11-18T16:07:10;4.80;99.90
61016;DHT22;46902;52.920;6.536;2022-11-18T16:09:36;4.80;99.90
61016;DHT22;46902;52.920;6.536;2022-11-18T16:12:20;4.80;99.90
61016;DHT22;46902;52.920;6.536;2022-11-18T16:15:04;4.80;99.90
61016;DHT22;46902;52.920;6.536;2022-11-18T16:17:48;4.70;99.90
61016;DHT22;46902;52.920;6.536;2022-11-18T16:20:14;4.70;99.90
61016;DHT22;46902;52.920;6.536;2022-11-18T16:22:40;4.70;99.90
61016;DHT22;46902;52.920;6.536;2022-11-18T16:25:05;4.70;99.90
61016;DHT22;46902;52.920;6.536;2022-11-18T16:27:31;4.70;99.90
61016;DHT22;46902;52.920;6.536;2022-11-18T16:29:58;4.70;99.90
61016;DHT22;46902;52.920;6.536;2022-11-18T16:32:24;4.70;99.90
61016;DHT22;46902;52.920;6.536;2022-11-18T16:34:50;4.60;99.90
61016;DHT22;46902;52.920;6.536;2022-11-18T16:37:15;4.60;99.90
61016;DHT22;46902;52.920;6.536;2022-11-18T16:39:41;4.60;99.90
61016;DHT22;46902;52.920;6.536;2022-11-18T16:42:09;4.60;99.90
61016;DHT22;46902;52.920;6.536;2022-11-18T16:44:36;4.50;99.90
61016;DHT22;46902;52.920;6.536;2022-11-18T16:47:03;4.50;99.90
61016;DHT22;46902;52.920;6.536;2022-11-18T16:49:29;4.50;99.90
61016;DHT22;46902;52.920;6.536;2022-11-18T16:51:55;4.50;99.90
61016;DHT22;46902;52.920;6.536;2022-11-18T16:54:26;4.50;99.90
61016;DHT22;46902;52.920;6.536;2022-11-18T16:56:54;4.40;99.90
61016;DHT22;46902;52.920;6.536;2022-11-18T16:59:30;4.40;99.90
61016;DHT22;46902;52.920;6.536;2022-11-18T17:01:57;4.50;99.90
61016;DHT22;46902;52.920;6.536;2022-11-18T17:04:24;4.40;99.90
61016;DHT22;46902;52.920;6.536;2022-11-18T17:06:50;4.40;99.90
61016;DHT22;46902;52.920;6.536;2022-11-18T17:09:18;4.40;99.90
61016;DHT22;46902;52.920;6.536;2022-11-18T17:11:44;4.40;99.90
61016;DHT22;46902;52.920;6.536;2022-11-18T17:14:09;4.30;99.90
61016;DHT22;46902;52.920;6.536;2022-11-18T17:16:35;4.30;99.90
61016;DHT22;46902;52.920;6.536;2022-11-18T17:19:01;4.30;99.90
61016;DHT22;46902;52.920;6.536;2022-11-18T17:21:28;4.30;99.90
61016;DHT22;46902;52.920;6.536;2022-11-18T17:23:54;4.30;99.90
61016;DHT22;46902;52.920;6.536;2022-11-18T17:26:22;4.20;99.90
61016;DHT22;46902;52.920;6.536;2022-11-18T17:28:48;4.20;99.90
61016;DHT22;46902;52.920;6.536;2022-11-18T17:31:16;4.10;99.90
61016;DHT22;46902;52.920;6.536;2022-11-18T17:33:43;4.10;99.90
61016;DHT22;46902;52.920;6.536;2022-11-18T17:36:15;4.10;99.90
61016;DHT22;46902;52.920;6.536;2022-11-18T17:38:42;4.10;99.90
61016;DHT22;46902;52.920;6.536;2022-11-18T17:41:10;4.00;99.90